Time;durP1;ratioP1;P1;durP2;ratioP2;P2;SDS_P1;SDS_P2;PMS_P1;PMS_P2;Temp;Humidity;BMP_temperature;BMP_pressure;BME280_temperature;BME280_humidity;BME280_pressure;Samples;Min_cycle;Max_cycle;Signal;HPM_P1;HPM_P2
2023/07/28 14:41:11;;;;;;;;;1.00;1.00;;;;;42.47;90.44;100087.81;5076608;27;49688;-67
2023/07/28 14:43:36;;;;;;;;;3.25;2.00;;;;;36.26;100.00;98663.47;5077728;27;50210;-67
2023/07/28 14:46:01;;;;;;;;;2.00;2.00;;;;;34.08;100.00;98378.94;5077415;27;55121;-67
2023/07/28 14:48:27;;;;;;;;;2.25;0.50;;;;;33.10;100.00;98363.69;5085968;27;50453;-67
2023/07/28 14:50:52;;;;;;;;;1.25;0.00;;;;;32.54;100.00;98249.38;5085420;27;49679;-67
2023/07/28 14:53:32;;;;;;;;;0.50;0.50;;;;;32.34;100.00;98183.69;5083526;27;65730;-68
2023/07/28 14:55:58;;;;;;;;;0.00;0.00;;;;;32.17;100.00;98361.06;5085977;27;49981;-68
2023/07/28 14:58:25;;;;;;;;;0.00;0.00;;;;;31.97;100.00;98192.22;5074501;27;49950;-69
2023/07/28 15:00:50;;;;;;;;;1.00;1.00;;;;;32.22;100.00;98194.97;5080738;27;49778;-67
2023/07/28 15:03:15;;;;;;;;;0.25;0.25;;;;;32.50;100.00;98237.13;5064377;28;58202;-68
2023/07/28 15:05:41;;;;;;;;;0.25;0.00;;;;;32.49;100.00;98365.78;5064384;27;51112;-68
2023/07/28 15:08:06;;;;;;;;;0.75;0.75;;;;;32.36;100.00;98246.78;5064922;28;50019;-68
2023/07/28 15:10:31;;;;;;;;;1.00;0.00;;;;;32.04;100.00;98410.38;5065212;28;49823;-67
2023/07/28 15:12:57;;;;;;;;;0.00;0.00;;;;;31.94;100.00;98389.75;5064760;28;57259;-68
2023/07/28 15:15:23;;;;;;;;;1.50;1.50;;;;;31.70;100.00;98309.09;5064849;28;61204;-68
2023/07/28 15:17:48;;;;;;;;;1.00;1.00;;;;;31.60;100.00;98322.75;5064224;27;50059;-68
2023/07/28 15:20:14;;;;;;;;;0.75;0.50;;;;;31.62;100.00;98397.50;5064366;28;50252;-68
2023/07/28 15:22:39;;;;;;;;;0.00;0.00;;;;;31.49;100.00;98374.56;5064622;27;50069;-68
2023/07/28 15:25:06;;;;;;;;;3.00;0.00;;;;;31.37;100.00;98571.88;5064084;28;50116;-68
2023/07/28 15:27:31;;;;;;;;;1.25;1.00;;;;;31.32;100.00;98503.69;5064497;28;50660;-68
2023/07/28 15:29:56;;;;;;;;;0.00;0.00;;;;;31.29;100.00;98466.91;5064399;28;51184;-68
2023/07/28 15:32:22;;;;;;;;;0.00;0.00;;;;;31.54;100.00;98421.84;5064337;28;50627;-68
2023/07/28 15:34:47;;;;;;;;;0.00;0.00;;;;;31.67;100.00;98575.22;5062726;28;54955;-69
2023/07/28 15:37:12;;;;;;;;;2.00;1.00;;;;;31.65;100.00;98645.00;5063475;28;64404;-68
2023/07/28 15:39:37;;;;;;;;;0.00;0.00;;;;;31.73;100.00;98525.75;5066033;27;59717;-68
2023/07/28 15:42:03;;;;;;;;;1.50;0.50;;;;;31.70;100.00;98581.16;5087269;27;49794;-68
2023/07/28 15:44:29;;;;;;;;;0.75;0.75;;;;;31.78;100.00;98496.34;5085311;27;50370;-68
2023/07/28 15:46:54;;;;;;;;;0.00;0.00;;;;;31.92;100.00;98573.59;5086839;27;53821;-68
2023/07/28 15:49:19;;;;;;;;;0.50;0.50;;;;;32.35;100.00;98462.31;5085699;27;53235;-68
2023/07/28 15:51:45;;;;;;;;;2.00;1.25;;;;;32.54;100.00;98545.41;5058987;27;50115;-68
2023/07/28 15:54:10;;;;;;;;;0.50;0.50;;;;;32.48;100.00;98510.72;5074121;27;49811;-68
2023/07/28 15:56:35;;;;;;;;;1.50;1.50;;;;;33.41;100.00;98527.09;5073751;27;50477;-68
2023/07/28 15:59:01;;;;;;;;;2.00;2.00;;;;;35.72;100.00;98706.31;5074126;27;49925;-68
2023/07/28 16:01:26;;;;;;;;;1.00;0.00;;;;;38.28;100.00;99263.38;5074454;27;49801;-68
2023/07/28 16:03:56;;;;;;;;;0.75;0.75;;;;;37.89;100.00;99589.38;5072455;27;58606;-68
2023/07/28 16:06:21;;;;;;;;;1.50;0.50;;;;;36.43;100.00;99341.94;5073637;27;50654;-68
2023/07/28 16:08:46;;;;;;;;;1.00;1.00;;;;;35.21;100.00;99132.13;5053650;28;50205;-68
2023/07/28 16:11:12;;;;;;;;;1.75;0.00;;;;;34.23;100.00;98993.63;5071005;27;49849;-68
2023/07/28 16:13:37;;;;;;;;;0.00;0.00;;;;;33.59;100.00;98925.84;5068638;28;55783;-68
2023/07/28 16:16:03;;;;;;;;;1.00;1.00;;;;;32.99;100.00;98890.28;5070612;28;61848;-68
2023/07/28 16:18:28;;;;;;;;;1.50;1.50;;;;;32.65;100.00;98862.09;5070843;28;50008;-68
2023/07/28 16:20:54;;;;;;;;;2.00;2.00;;;;;32.25;100.00;98810.91;5070860;28;49852;-68
2023/07/28 16:23:19;;;;;;;;;3.00;2.00;;;;;32.32;100.00;98880.75;5069883;28;49981;-69
2023/07/28 16:25:47;;;;;;;;;0.75;0.75;;;;;32.38;100.00;98838.56;5070610;28;49868;-68
2023/07/28 16:28:13;;;;;;;;;1.00;1.00;;;;;32.34;100.00;98786.44;5071046;28;49706;-68
2023/07/28 16:30:40;;;;;;;;;1.50;1.50;;;;;32.24;100.00;98785.63;5070811;27;50040;-68
2023/07/28 16:33:06;;;;;;;;;0.00;0.00;;;;;32.50;100.00;98755.84;5071280;27;49909;-68
2023/07/28 16:35:32;;;;;;;;;0.75;0.75;;;;;32.40;100.00;98790.38;5070226;28;50326;-68
2023/07/28 16:37:57;;;;;;;;;1.00;1.00;;;;;32.27;100.00;98839.59;5070474;28;49836;-68
2023/07/28 16:40:22;;;;;;;;;1.50;1.50;;;;;32.23;100.00;98777.59;5069484;27;62615;-69
2023/07/28 16:42:48;;;;;;;;;0.00;0.00;;;;;32.11;100.00;98779.69;5052671;28;49918;-70
2023/07/28 16:45:13;;;;;;;;;1.25;1.25;;;;;32.08;100.00;98774.56;5069979;28;60146;-67
2023/07/28 16:47:38;;;;;;;;;1.00;1.00;;;;;32.29;100.00;98783.28;5070582;28;50105;-66
2023/07/28 16:50:06;;;;;;;;;1.00;1.00;;;;;32.40;100.00;98877.28;5069477;28;50186;-66
2023/07/28 16:52:31;;;;;;;;;1.50;1.50;;;;;32.30;100.00;98860.19;5084190;27;49771;-65
2023/07/28 16:54:57;;;;;;;;;2.00;2.00;;;;;32.22;100.00;98868.19;5090320;27;49921;-65
2023/07/28 16:57:22;;;;;;;;;2.50;2.25;;;;;32.09;100.00;98863.13;5090526;27;59471;-66
2023/07/28 16:59:47;;;;;;;;;3.75;1.25;;;;;32.00;100.00;98815.19;5089949;27;62243;-68
2023/07/28 17:02:12;;;;;;;;;1.50;1.50;;;;;31.94;100.00;98799.50;5089143;27;56170;-68
2023/07/28 17:04:38;;;;;;;;;1.50;1.50;;;;;32.08;100.00;98767.28;5089825;27;51776;-68
2023/07/28 17:07:03;;;;;;;;;1.25;1.25;;;;;32.42;100.00;98952.16;5089740;27;56159;-67
2023/07/28 17:09:29;;;;;;;;;1.00;1.00;;;;;32.49;100.00;98908.94;5090635;27;49852;-68
2023/07/28 17:11:54;;;;;;;;;2.50;1.50;;;;;32.82;100.00;98931.06;5072166;27;49723;-69
2023/07/28 17:14:19;;;;;;;;;2.00;2.00;;;;;32.79;100.00;99011.00;5090489;27;50063;-68
2023/07/28 17:16:45;;;;;;;;;1.00;1.00;;;;;32.71;100.00;98878.63;5071843;27;50181;-72
2023/07/28 17:19:10;;;;;;;;;1.00;1.00;;;;;32.56;100.00;98945.38;5055326;27;49711;-70
2023/07/28 17:21:35;;;;;;;;;3.00;3.00;;;;;32.44;100.00;98905.84;5090268;27;49691;-69
2023/07/28 17:24:01;;;;;;;;;3.00;3.00;;;;;32.30;100.00;98975.06;5062693;27;63944;-69
2023/07/28 17:26:26;;;;;;;;;3.00;3.00;;;;;32.06;100.00;98982.88;5083731;27;50106;-69
2023/07/28 17:28:51;;;;;;;;;4.00;3.00;;;;;31.90;100.00;99060.31;5069661;28;49989;-70
2023/07/28 17:31:16;;;;;;;;;5.25;5.00;;;;;31.77;100.00;99019.06;5069850;28;49989;-72
2023/07/28 17:33:42;;;;;;;;;12.25;9.75;;;;;31.69;100.00;98923.09;5069119;27;65900;-72
2023/07/28 17:36:07;;;;;;;;;7.00;6.00;;;;;31.61;100.00;99021.47;5068904;28;66188;-72
2023/07/28 17:38:33;;;;;;;;;7.50;7.25;;;;;31.47;100.00;98954.13;5069961;28;49731;-72
2023/07/28 17:40:58;;;;;;;;;5.75;5.75;;;;;31.37;100.00;98851.13;5069586;27;50065;-72
2023/07/28 17:43:24;;;;;;;;;7.50;4.75;;;;;31.29;100.00;98821.16;5069805;28;49739;-72
2023/07/28 17:45:49;;;;;;;;;4.75;4.75;;;;;31.23;100.00;98865.09;5069572;28;49966;-73
2023/07/28 17:48:15;;;;;;;;;7.00;7.00;;;;;31.23;100.00;98927.47;5069686;28;49607;-72
2023/07/28 17:50:41;;;;;;;;;6.25;6.25;;;;;31.17;100.00;98938.81;5069775;28;49682;-70
2023/07/28 17:53:06;;;;;;;;;9.00;9.00;;;;;31.10;100.00;98925.00;5068959;28;49973;-72
2023/07/28 17:55:31;;;;;;;;;9.25;9.25;;;;;31.06;100.00;98926.28;5069401;28;51693;-72
2023/07/28 17:57:56;;;;;;;;;26.25;22.75;;;;;30.95;100.00;98956.22;5068723;28;64077;-72
2023/07/28 18:00:22;;;;;;;;;13.50;13.50;;;;;31.00;100.00;98872.69;5069397;28;49620;-72
2023/07/28 18:02:47;;;;;;;;;30.25;29.00;;;;;31.00;100.00;98916.03;5068533;28;69562;-71
2023/07/28 18:05:12;;;;;;;;;21.50;21.50;;;;;31.02;100.00;98873.38;5068927;28;49657;-72
2023/07/28 18:07:38;;;;;;;;;61.00;50.00;;;;;31.12;100.00;98919.44;5069404;27;49683;-71
2023/07/28 18:10:03;;;;;;;;;61.67;50.33;;;;;31.07;100.00;99006.56;5069359;28;49762;-71
2023/07/28 18:12:29;;;;;;;;;56.67;48.00;;;;;30.99;100.00;98982.91;5069052;28;50845;-72
2023/07/28 18:14:54;;;;;;;;;47.00;40.25;;;;;30.97;100.00;98978.63;5068753;28;49741;-72
2023/07/28 18:17:22;;;;;;;;;41.00;36.50;;;;;30.93;100.00;98974.47;5069138;28;50033;-71
2023/07/28 18:19:49;;;;;;;;;40.75;33.50;;;;;31.14;100.00;98991.47;5068977;28;50048;-72
2023/07/28 18:22:15;;;;;;;;;20.75;19.75;;;;;31.41;100.00;98995.38;5069032;28;51026;-71
2023/07/28 18:24:40;;;;;;;;;11.75;10.50;;;;;31.63;100.00;99043.88;5068599;27;49779;-71
2023/07/28 18:27:06;;;;;;;;;14.75;13.75;;;;;31.92;100.00;99072.88;5068161;28;58763;-72
2023/07/28 18:29:31;;;;;;;;;10.00;8.00;;;;;32.12;100.00;99116.13;5067879;27;49735;-73
2023/07/28 18:31:57;;;;;;;;;30.00;30.00;;;;;32.24;100.00;99205.59;5068590;28;49791;-72
2023/07/28 18:34:22;;;;;;;;;10.50;9.50;;;;;32.37;100.00;99226.03;5068735;28;49658;-72
2023/07/28 18:36:52;;;;;;;;;20.50;18.75;;;;;32.41;100.00;99248.31;5050608;28;50968;-72
2023/07/28 18:39:19;;;;;;;;;21.25;19.50;;;;;32.59;100.00;99344.41;5068815;28;49669;-72
2023/07/28 18:41:44;;;;;;;;;76.67;63.67;;;;;32.50;100.00;99396.84;5068846;28;50938;-72
2023/07/28 18:44:09;;;;;;;;;51.50;42.50;;;;;32.64;100.00;99399.19;5067387;28;49799;-72
2023/07/28 18:46:35;;;;;;;;;40.75;33.25;;;;;32.69;100.00;99398.72;5068801;28;49972;-72
2023/07/28 18:49:00;;;;;;;;;12.00;11.75;;;;;32.71;100.00;99499.97;5068643;28;49672;-72
2023/07/28 18:51:26;;;;;;;;;18.75;18.50;;;;;32.75;100.00;99463.41;5068215;28;50302;-72
2023/07/28 18:53:51;;;;;;;;;53.75;44.50;;;;;32.78;100.00;99484.00;5067707;28;49799;-73
2023/07/28 18:56:17;;;;;;;;;44.25;38.50;;;;;32.78;100.00;99475.84;5068814;28;49707;-72
2023/07/28 18:58:42;;;;;;;;;40.50;34.25;;;;;32.80;100.00;99488.28;5068592;28;49726;-72
2023/07/28 19:01:08;;;;;;;;;34.25;31.50;;;;;32.79;100.00;99504.72;5049155;27;62110;-72
2023/07/28 19:03:34;;;;;;;;;12.25;12.25;;;;;32.82;100.00;99504.47;5068469;28;50207;-72
2023/07/28 19:05:59;;;;;;;;;9.00;9.00;;;;;32.77;100.00;99525.75;5068711;28;50310;-72
2023/07/28 19:08:24;;;;;;;;;7.25;6.00;;;;;32.77;100.00;99602.72;5050455;28;49676;-72
2023/07/28 19:10:50;;;;;;;;;9.00;9.00;;;;;32.77;100.00;99507.59;5068377;27;50292;-72
2023/07/28 19:13:15;;;;;;;;;6.50;6.50;;;;;32.76;100.00;99581.97;5068476;28;50337;-72
2023/07/28 19:15:41;;;;;;;;;6.50;6.25;;;;;32.68;100.00;99557.34;5068433;28;50227;-72
2023/07/28 19:18:06;;;;;;;;;7.00;7.00;;;;;32.69;100.00;99523.72;5068442;28;50116;-72
2023/07/28 19:20:31;;;;;;;;;7.50;7.50;;;;;32.63;100.00;99574.06;5049886;28;51818;-72
2023/07/28 19:22:57;;;;;;;;;7.50;6.00;;;;;32.63;100.00;99546.91;5067721;28;55721;-72
2023/07/28 19:25:23;;;;;;;;;4.50;4.50;;;;;32.64;100.00;99543.19;5068012;28;58808;-72
2023/07/28 19:27:49;;;;;;;;;7.25;6.50;;;;;32.65;100.00;99511.44;5071693;28;49924;-72
2023/07/28 19:30:15;;;;;;;;;4.75;4.75;;;;;32.51;100.00;99553.41;5053438;28;50297;-73
2023/07/28 19:32:40;;;;;;;;;4.50;4.50;;;;;32.62;100.00;99538.84;5071636;28;49684;-73
2023/07/28 19:35:07;;;;;;;;;4.75;4.00;;;;;32.56;100.00;99564.75;5071720;28;50104;-73
2023/07/28 19:37:32;;;;;;;;;3.00;3.00;;;;;32.60;100.00;99551.72;5071884;28;50058;-73
2023/07/28 19:39:58;;;;;;;;;6.00;6.00;;;;;32.57;100.00;99539.28;5071230;28;50147;-73
2023/07/28 19:42:23;;;;;;;;;6.25;6.25;;;;;32.55;100.00;99609.22;5071680;27;49801;-73
2023/07/28 19:44:50;;;;;;;;;5.50;3.25;;;;;32.52;100.00;99544.25;5053123;28;50148;-73
2023/07/28 19:47:15;;;;;;;;;6.50;6.25;;;;;32.50;100.00;99586.16;5071697;28;49735;-73
2023/07/28 19:49:40;;;;;;;;;5.00;5.00;;;;;32.49;100.00;99554.56;5053115;28;50847;-74
2023/07/28 19:52:06;;;;;;;;;3.75;3.75;;;;;32.49;100.00;99603.44;5070558;28;49780;-74
2023/07/28 19:54:34;;;;;;;;;4.75;4.50;;;;;32.45;100.00;99573.84;5071571;28;49816;-74
2023/07/28 19:57:00;;;;;;;;;6.75;5.50;;;;;32.43;100.00;99567.69;5071632;28;49700;-73
2023/07/28 19:59:26;;;;;;;;;5.00;3.75;;;;;32.43;100.00;99577.72;5070982;27;50371;-73
2023/07/28 20:01:52;;;;;;;;;4.50;4.50;;;;;32.35;100.00;99596.53;5053004;28;50525;-73
2023/07/28 20:04:18;;;;;;;;;3.00;2.00;;;;;32.40;100.00;99599.69;5071703;27;50008;-73
2023/07/28 20:06:44;;;;;;;;;4.00;2.25;;;;;32.39;100.00;99638.72;5071494;28;49983;-73
2023/07/28 20:09:09;;;;;;;;;2.75;2.75;;;;;32.33;100.00;99658.25;5071170;28;50660;-73
2023/07/28 20:11:34;;;;;;;;;2.75;2.75;;;;;32.18;100.00;99636.84;5051827;28;63705;-73
2023/07/28 20:14:00;;;;;;;;;4.00;4.00;;;;;32.27;100.00;99692.22;5052093;28;49856;-74
2023/07/28 20:16:25;;;;;;;;;4.00;3.25;;;;;32.16;100.00;99708.56;5071441;28;49802;-75
2023/07/28 20:18:52;;;;;;;;;4.00;4.00;;;;;32.20;100.00;99677.44;5071030;27;50117;-77
2023/07/28 20:21:17;;;;;;;;;5.00;3.00;;;;;32.25;100.00;99615.47;5070911;28;49777;-76
2023/07/28 20:23:43;;;;;;;;;4.00;4.00;;;;;32.35;100.00;99631.84;5071111;28;50171;-73
2023/07/28 20:26:10;;;;;;;;;5.25;3.00;;;;;32.36;100.00;99574.66;5071099;27;49715;-74
2023/07/28 20:28:35;;;;;;;;;5.25;5.00;;;;;32.29;100.00;99616.91;5070575;27;50954;-73
2023/07/28 22:10:31;;;;;;;;;10.25;9.25;;;;;27.34;100.00;98993.72;6187130;22;1484888;-70
2023/07/28 22:12:56;;;;;;;;;11.00;10.75;;;;;27.24;100.00;99050.16;6202890;22;49932;-67
